Flight Track Log - Related Links

Times and Time Zones

All times are in EDT time to prevent confusion due to time zone crossing. See the N668DN flight status page for this flight to view local times or setup timezone preferences in your user account.

Time Position Orientation Groundspeed Altitude Reporting Facility
EDT Latitude Longitude Course Direction KTS MPH feet Rate Location/Type
09:10AM 36.0747 -115.1714 80° East 169 194 3,100  Level Los Angeles Center
09:11AM 36.0767 -115.2506 272° West 236 272 5,300 2,308 Climbing Los Angeles Center
09:12AM 36.1000 -115.2856 310° West 251 289 7,100 3,148 Climbing Los Angeles Center
09:12AM 36.1272 -115.2950 344° North 247 284 8,500 2,800 Climbing Los Angeles Center
09:13AM 36.1833 -115.0769 90° East  Level FlightAware Approximate
09:13AM 36.1622 -115.2747 25° Northeast 250 288 9,900  Level Los Angeles Center
09:13AM 36.1753 -115.2472 60° Northeast 258 297 11,000 2,066 Climbing Los Angeles Center
09:14AM 36.1834 -114.9236 90° East  Level FlightAware Approximate
09:14AM 36.1928 -115.1897 69° East 273 314 12,000  Level Los Angeles Center
09:15AM 36.1992 -114.7720 80° East  Level FlightAware Approximate
09:15AM 36.1967 -115.0733 88° East 336 387 13,400  Level Los Angeles Center
09:16AM 36.1978 -114.9683 89° East 370 426 15,100 2,346 Climbing Los Angeles Center
09:17AM 36.2003 -114.7783 89° East 392 451 18,600 2,436 Climbing Los Angeles Center
09:18AM 36.1989 -114.6383 91° East 404 465 20,500 1,869 Climbing Los Angeles Center
09:19AM 36.1953 -114.4919 92° East 422 486 22,400 2,033 Climbing Los Angeles Center
09:20AM 36.1939 -114.3119 90° East 434 499 24,600 1,934 Climbing Los Angeles Center
09:21AM 36.2008 -114.1600 87° East 442 509 26,300 1,488 Climbing Los Angeles Center
09:22AM 36.2206 -114.0081 81° East 447 514 27,600 1,388 Climbing Los Angeles Center
09:23AM 36.2389 -113.8519 82° East 456 525 29,100 1,623 Climbing Los Angeles Center
09:24AM 36.2581 -113.6978 81° East 455 524 30,900 1,686 Climbing Los Angeles Center
09:25AM 36.2753 -113.5450 82° East 450 518 32,500 1,388 Climbing Los Angeles Center
09:26AM 36.2925 -113.3939 82° East 445 512 33,700 1,279 Climbing Los Angeles Center
09:27AM 36.3100 -113.2433 82° East 442 509 35,100 1,140 Climbing Los Angeles Center
09:28AM 36.3514 -113.1200 67° East 435 501 36,000 694 Climbing Los Angeles Center
09:29AM 36.4011 -112.9819 66° East 440 506 36,500 639 Climbing Los Angeles Center
09:30AM 36.4642 -112.8144 65° Northeast 446 513 37,300 694 Climbing Los Angeles Center
09:31AM 36.5050 -112.7017 66° East 448 516 37,900 496 Climbing Los Angeles Center
09:32AM 36.5675 -112.5319 65° Northeast 452 520 38,300 443 Climbing Los Angeles Center
09:33AM 36.6086 -112.4175 66° East 455 524 38,800 344 Climbing Los Angeles Center
09:34AM 36.6717 -112.2469 65° Northeast 454 522 39,000 99 Climbing Los Angeles Center
09:35AM 36.7219 -112.1050 66° East 452 520 39,000  Level Los Angeles Center
09:36AM 36.7639 -111.9933 65° Northeast 448 516 39,000  Level Denver Center
09:37AM 36.8239 -111.8244 66° East 447 514 39,000  Level Denver Center
09:38AM 36.8839 -111.6558 66° East 445 512 39,000  Level Denver Center
09:39AM 36.9342 -111.5136 66° East 448 516 39,000  Level Denver Center
09:40AM 36.9844 -111.3725 66° East 448 516 39,000  Level Denver Center
09:41AM 37.0336 -111.2308 66° East 447 514 39,000  Level Denver Center
09:42AM 37.0833 -111.0886 66° East 447 514 39,000  Level Denver Center
09:43AM 37.1322 -110.9464 67° East 447 514 39,000  Level Denver Center
09:44AM 37.1817 -110.8039 66° East 448 516 39,000  Level Denver Center
09:45AM 37.2222 -110.6889 66° East 451 519 39,000  Level Denver Center
09:46AM 37.2811 -110.5164 67° East 451 519 39,000  Level Denver Center
09:47AM 37.3297 -110.3728 67° East 448 516 39,000  Level Denver Center
09:48AM 37.3792 -110.2283 67° East 450 518 39,000  Level Denver Center
09:49AM 37.4336 -110.0650 67° East 446 513 39,000  Level Denver Center
09:50AM 37.4806 -109.9258 67° East 450 518 39,000  Level Denver Center
09:51AM 37.5353 -109.7633 67° East 450 518 39,000  Level Denver Center
09:53AM 37.5814 -109.6253 67° East 446 513 39,000  Level Denver Center
09:54AM 37.6269 -109.4858 68° East 448 516 39,000  Level Denver Center
09:55AM 37.6803 -109.3239 67° East 447 514 39,000  Level Denver Center
09:56AM 37.7253 -109.1858 68° East 443 510 39,000  Level Denver Center
09:57AM 37.7706 -109.0486 67° East 442 509 39,000  Level Denver Center
09:58AM 37.8197 -108.8833 69° East 446 513 39,000  Level Denver Center
09:59AM 37.8508 -108.7344 75° East 453 521 39,000  Level Denver Center
10:00AM 37.8822 -108.5869 75° East 453 521 39,000  Level Denver Center
10:01AM 37.9183 -108.4156 75° East 452 520 39,000  Level Denver Center
10:02AM 37.9494 -108.2678 75° East 452 520 39,000  Level Denver Center
10:03AM 37.9803 -108.1186 75° East 455 524 39,000  Level Denver Center
10:04AM 38.0158 -107.9439 75° East 459 528 39,000  Level Denver Center
10:05AM 38.0469 -107.7972 75° East 451 519 39,000  Level Denver Center
10:06AM 38.0800 -107.6342 76° East 452 520 39,000  Level Denver Center
10:07AM 38.1108 -107.4856 75° East 455 524 39,000  Level Denver Center
10:08AM 38.1444 -107.3119 76° East 454 522 39,000  Level Denver Center
10:09AM 38.1700 -107.1811 76° East 456 525 39,000  Level Denver Center
10:10AM 38.2075 -106.9939 76° East 457 526 39,000  Level Denver Center
10:11AM 38.2378 -106.8394 76° East 454 522 39,000  Level Denver Center
10:12AM 38.2656 -106.6925 76° East 448 516 39,000  Level Denver Center
10:13AM 38.2992 -106.5211 76° East 447 514 39,000  Level Denver Center
10:14AM 38.3325 -106.3475 76° East 447 514 39,000  Level Denver Center
10:15AM 38.3619 -106.1933 76° East 448 516 39,000  Level Denver Center
10:16AM 38.3903 -106.0444 76° East 447 514 39,000  Level Denver Center
10:17AM 38.4228 -105.8717 76° East 448 516 39,000  Level Denver Center
10:18AM 38.4500 -105.7183 77° East 450 518 39,000  Level Denver Center
10:19AM 38.4794 -105.5631 76° East 449 517 39,000  Level Denver Center
10:20AM 38.5119 -105.3806 77° East 449 517 39,000  Level Denver Center
10:21AM 38.5406 -105.2253 77° East 448 516 39,000  Level Denver Center
10:22AM 38.5683 -105.0703 77° East 446 513 39,000  Level Denver Center
10:23AM 38.5961 -104.9153 77° East 444 511 39,000  Level Denver Center
10:24AM 38.6225 -104.7617 78° East 441 507 39,000  Level Denver Center
10:25AM 38.6500 -104.6078 77° East 441 507 39,000  Level Denver Center
10:26AM 38.6769 -104.4539 77° East 442 509 39,000  Level Denver Center
10:27AM 38.7036 -104.2975 78° East 444 511 39,000  Level Denver Center
10:28AM 38.7306 -104.1417 77° East 447 514 39,000  Level Denver Center
10:30AM 38.7586 -103.9728 78° East 441 507 39,000  Level Denver Center
10:31AM 38.7836 -103.8233 78° East 445 512 39,000  Level Denver Center
10:32AM 38.8125 -103.6486 78° East 447 514 39,000  Level Denver Center
10:33AM 38.8347 -103.4983 79° East 448 516 39,000  Level Denver Center
10:34AM 38.8583 -103.3333 80° East 445 512 39,000  Level Denver Center
10:35AM 38.8811 -103.1747 79° East 449 517 39,000  Level Denver Center
10:36AM 38.9036 -103.0178 80° East 446 513 39,000  Level Denver Center
10:37AM 38.9244 -102.8606 80° East 443 510 39,000  Level Denver Center
10:38AM 38.9489 -102.6875 80° East 440 506 39,000  Level Denver Center
10:39AM 38.9692 -102.5383 80° East 442 509 39,000  Level Denver Center
10:40AM 38.9925 -102.3656 80° East 441 507 39,000  Level Denver Center
10:41AM 39.0119 -102.2164 80° East 442 509 39,000  Level Denver Center
10:42AM 39.0339 -102.0433 81° East 440 506 39,000  Level Denver Center
10:43AM 39.0542 -101.8961 80° East 436 502 39,000  Level Denver Center
10:44AM 39.0731 -101.7469 81° East 438 504 39,000  Level Denver Center
10:45AM 39.0964 -101.5706 80° East 441 507 39,000  Level Denver Center
10:46AM 39.1142 -101.4219 81° East 441 507 39,000  Level Denver Center
10:47AM 39.1364 -101.2483 81° East 441 507 39,000  Level Denver Center
10:48AM 39.1553 -101.0994 81° East 442 509 39,000  Level Denver Center
10:49AM 39.1767 -100.9247 81° East 443 510 39,000  Level Denver Center
10:50AM 39.1947 -100.7731 81° East 447 514 39,000  Level Denver Center
10:51AM 39.2158 -100.5950 81° East 449 517 39,000  Level Denver Center
10:52AM 39.2342 -100.4419 81° East 452 520 39,000  Level Denver Center
10:53AM 39.2544 -100.2617 82° East 456 525 39,000  Level Denver Center
10:54AM 39.2861 -100.1114 75° East 456 525 39,000  Level Denver Center
10:55AM 39.3311 -99.9414 71° East 452 520 39,000  Level Denver Center
10:56AM 39.3683 -99.7925 72° East 453 521 39,000  Level Denver Center
10:57AM 39.4053 -99.6456 72° East 452 520 39,000  Level Denver Center
10:58AM 39.4478 -99.4711 72° East 454 522 39,000  Level Denver Center
10:59AM 39.4822 -99.3311 72° East 451 519 39,000  Level Denver Center
11:00AM 39.5275 -99.1461 72° East 450 518 39,000  Level Denver Center
11:01AM 39.5653 -98.9939 72° East 446 513 39,000  Level Denver Center
11:03AM 39.6014 -98.8411 73° East 444 511 39,000  Level Denver Center
11:03AM 39.6314 -98.7211 72° East 442 509 39,000  Level Minneapolis Center
11:04AM 39.6675 -98.5678 73° East 444 511 39,000  Level Minneapolis Center
11:06AM 39.7114 -98.3844 73° East 444 511 39,000  Level Minneapolis Center
11:07AM 39.7536 -98.2000 73° East 444 511 39,000  Level Minneapolis Center
11:08AM 39.7892 -98.0464 73° East 444 511 39,000  Level Minneapolis Center
11:09AM 39.8256 -97.8936 73° East 445 512 39,000  Level Minneapolis Center
11:10AM 39.8611 -97.7375 73° East 448 516 39,000  Level Minneapolis Center
11:11AM 39.8969 -97.5822 73° East 449 517 39,000  Level Minneapolis Center
11:12AM 39.9317 -97.4258 74° East 450 518 39,000  Level Minneapolis Center
11:13AM 39.9708 -97.2489 74° East 450 518 39,000  Level Minneapolis Center
11:14AM 40.0131 -97.0614 74° East 450 518 39,000  Level Minneapolis Center
11:15AM 40.0481 -96.9047 74° East 452 520 39,000  Level Minneapolis Center
11:16AM 40.0828 -96.7486 74° East 451 519 39,000  Level Minneapolis Center
11:17AM 40.1167 -96.5922 74° East 449 517 39,000  Level Minneapolis Center
11:18AM 40.1506 -96.4353 74° East 450 518 39,000  Level Minneapolis Center
11:19AM 40.1919 -96.2456 74° East 452 520 39,000  Level Minneapolis Center
11:20AM 40.2233 -96.0872 75° East 452 520 39,000  Level Minneapolis Center
11:21AM 40.2517 -95.9269 77° East 455 524 39,000  Level Minneapolis Center
11:22AM 40.2811 -95.7669 76° East 454 522 39,000  Level Minneapolis Center
11:23AM 40.3111 -95.6067 76° East 455 524 39,000  Level Minneapolis Center
11:24AM 40.3397 -95.4467 77° East 454 522 39,000  Level Minneapolis Center
11:25AM 40.3689 -95.2847 77° East 455 524 39,000  Level Minneapolis Center
11:26AM 40.3983 -95.1200 77° East 460 529 39,000  Level Minneapolis Center
11:27AM 40.4336 -94.9247 77° East 461 531 39,000  Level Minneapolis Center
11:28AM 40.4614 -94.7617 77° East 460 529 39,000  Level Minneapolis Center
11:29AM 40.4908 -94.5983 77° East 461 531 39,000  Level Minneapolis Center
11:30AM 40.5161 -94.4397 78° East 460 529 39,000  Level Minneapolis Center
11:31AM 40.5442 -94.2753 77° East 463 533 39,000  Level Minneapolis Center
11:33AM 40.5736 -94.1111 77° East 464 534 39,000  Level Minneapolis Center
11:34AM 40.6044 -93.9139 78° East 463 533 39,000  Level Minneapolis Center
11:35AM 40.6236 -93.7819 79° East 464 534 39,000  Level Minneapolis Center
11:36AM 40.6522 -93.5833 79° East 463 533 39,000  Level Minneapolis Center
11:37AM 40.6767 -93.4172 79° East 462 532 39,000  Level Minneapolis Center
11:38AM 40.7011 -93.2508 79° East 464 534 39,000  Level Minneapolis Center
11:39AM 40.7242 -93.0833 80° East 466 536 39,000  Level Minneapolis Center
11:40AM 40.7481 -92.9147 79° East 466 536 39,000  Level Minneapolis Center
11:41AM 40.7711 -92.7472 80° East 465 535 39,000  Level Minneapolis Center
11:42AM 40.7997 -92.5442 79° East 468 539 39,000  Level Minneapolis Center
11:43AM 40.8222 -92.3747 80° East 469 540 39,000  Level Minneapolis Center
11:44AM 40.8456 -92.2033 80° East 472 543 39,000  Level Minneapolis Center
11:45AM 40.8675 -92.0317 80° East 473 544 39,000  Level Minneapolis Center
11:46AM 40.8931 -91.8272 81° East 474 545 39,000  Level Chicago Center
11:47AM 40.9167 -91.6561 80° East 475 547 39,000  Level Chicago Center
11:48AM 40.9369 -91.4844 81° East 476 548 39,000  Level Chicago Center
11:49AM 40.9589 -91.3114 80° East 480 552 39,000  Level Chicago Center
11:50AM 40.9806 -91.1389 80° East 481 554 39,000  Level Chicago Center
11:51AM 41.0017 -90.9647 81° East 481 554 39,000  Level Chicago Center
11:52AM 41.0281 -90.7511 81° East 486 559 39,000  Level Chicago Center
11:53AM 41.0483 -90.5739 81° East 487 560 39,000  Level Chicago Center
11:54AM 41.0697 -90.3964 81° East 486 559 39,000  Level Chicago Center
11:55AM 41.0894 -90.2192 82° East 484 557 39,000  Level Chicago Center
11:56AM 41.1103 -90.0417 81° East 483 556 39,000  Level Chicago Center
11:57AM 41.1297 -89.8628 82° East 486 559 39,000  Level Chicago Center
11:58AM 41.1494 -89.6844 82° East 485 558 39,000  Level Chicago Center
11:59AM 41.1842 -89.5103 75° East 486 559 39,000  Level Chicago Center
12:00PM 41.2361 -89.3444 67° East 487 560 39,000  Level Chicago Center
12:01PM 41.2892 -89.1617 69° East 481 554 39,000  Level Chicago Center
12:02PM 41.3253 -88.9892 74° East 485 558 39,000 -629 Level Chicago Center
12:03PM 41.3581 -88.8150 76° East 486 559 37,700 -1,463 Descending Chicago Center
12:04PM 41.3939 -88.6306 75° East 515 593 36,000 -1,317 Descending Chicago Center
12:06PM 41.4356 -88.4069 76° East 523 602 35,000 -488 Descending Chicago Center
12:07PM 41.4711 -88.2194 76° East 523 602 35,000  Level Chicago Center
12:08PM 41.5061 -88.0444 75° East 529 609 35,000 -97 Level Chicago Center
12:09PM 41.5439 -87.8311 77° East 522 601 34,800 -537 Descending Chicago Center
12:10PM 41.5775 -87.6450 76° East 518 596 33,900 -878 Descending Chicago Center
12:11PM 41.6108 -87.4581 77° East 518 596 33,000 -532 Descending Chicago Center
12:12PM 41.6447 -87.2728 76° East 517 595 32,800 -439 Descending Chicago Center
12:13PM 41.6761 -87.0911 77° East 508 585 32,100 -780 Descending Chicago Center
12:14PM 41.7089 -86.9106 76° East 500 575 31,200 -1,161 Descending Chicago Center
12:15PM 41.7461 -86.6958 77° East 495 570 29,700 -1,415 Descending Chicago Center
12:16PM 41.7742 -86.5339 77° East 479 551 28,300 -1,415 Descending Chicago Center
12:17PM 41.8014 -86.3739 77° East 446 513 26,800 -1,694 Descending Chicago Center
12:18PM 41.8050 -86.2167 88° East 430 495 24,800 -2,146 Descending Chicago Center
12:19PM 41.8167 -86.0656 84° East 412 474 22,400 -2,244 Descending Chicago Center
12:20PM 41.8439 -85.9208 76° East 401 461 20,200 -1,645 Descending Chicago Center
12:21PM 41.8767 -85.7525 75° East 390 449 19,000 -585 Descending Chicago Center
12:22PM 41.9047 -85.6064 75° East 396 456 19,000  Level Chicago Center
12:23PM 41.9358 -85.4483 75° East 421 484 19,000  Level Chicago Center
12:24PM 41.9656 -85.2908 76° East 431 496 19,000  Level Chicago Center
12:25PM 41.9936 -85.1656 73° East 431 496 19,000  Level Cleveland Center
12:26PM 42.0181 -85.0164 78° East 425 489 19,000  Level Cleveland Center
12:27PM 42.0175 -84.8656 90° East 412 474 19,000 -400 Level Cleveland Center
12:28PM 41.9447 -84.7517 131° Southeast 373 429 18,200 -750 Descending Cleveland Center
12:29PM 41.8428 -84.6808 153° Southeast 352 405 17,500 -750 Descending Cleveland Center
12:30PM 41.7717 -84.5733 132° Southeast 365 420 16,700 -1,000 Descending Cleveland Center
12:31PM 41.7786 -84.4289 86° East 343 395 15,500 -1,295 Descending Cleveland Center
12:31PM 41.7892 -84.3625 78° East 377 434 14,800 -1,358 Descending Cleveland Center
12:32PM 41.7933 -84.3044 84° East 377 434 14,300 -1,174 Descending Cleveland Center
12:33PM 41.8083 -84.1547 82° East 355 409 13,000 -1,087 Descending Cleveland Center
12:34PM 41.8353 -84.0253 74° East 355 409 12,000 -462 Descending Cleveland Center
12:35PM 41.9008 -83.9228 49° Northeast 393 452 12,100 51 Climbing Cleveland Center
12:36PM 41.9731 -83.8092 49° Northeast 394 453 12,100  Level Cleveland Center
12:37PM 42.0450 -83.6953 50° Northeast 392 451 12,100 -49 Level Cleveland Center
12:38PM 42.1167 -83.5842 49° Northeast 387 445 12,000 -50 Descending Cleveland Center
12:39PM 42.1869 -83.5258 32° Northeast 357 411 12,000 -488 Level Cleveland Center
12:40PM 42.2614 -83.4731 28° Northeast 242 278 11,000 -1,200 Descending Cleveland Center
12:41PM 42.3103 -83.4331 31° Northeast 243 280 9,600 -1,721 Descending Cleveland Center
12:42PM 42.3864 -83.3917 22° Northeast 223 257 7,300 -1,701 Descending Cleveland Center
12:43PM 42.4247 -83.3483 40° Northeast 194 223 6,000 -1,385 Descending Cleveland Center
12:44PM 42.3922 -83.3158 144° Southeast 161 185 4,600 -1,171 Descending Cleveland Center
12:45PM 42.3464 -83.3222 186° South 164 189 3,600 -984 Descending Cleveland Center

Login

Don't have an account? Register now (free) for customized features, flight alerts, and more!